Athlone, Ireland
Current Conditions -  °F | °C
As of 7:30 AM on Friday 24 Oct 2014 (Local Time) from EIKN Reporting Station
Scattered Clouds Scattered Clouds  
Wind Chill: 39°   Ceiling: Unl
Heat Index: 43°   Visibility: 6mi
Dew Point: 39°   Wind: 7mph
Humidity: 87%   Direction: 190°S
Pressure: 29.8"   Gusts: NA
Location:  53.42°N, 7.95°W
Report Text: EIKN 240730Z 19006KT 160V220 9999 FEW018CB SCT045 06/04 Q1009 NOSIG
Loading
Personal Weather Stations






























Interactive Weather Map
Tropical Storm Tracking
New forecast layout! Learn more

10-Day Weather Forecast

Advertisements
Track Severe Weather on mobile